KSLC/SLC METAR and TAF weather

Enter ICAO airport designator
Station Type Date Time Source
KSLC METAR 2024/05/28 22:54 UTC NOAA

KSLC 282254Z 10003KT 10SM FEW090 FEW120 SCT150 SCT250 29/M01 A2997 RMK AO2 RAE00 SLP101 VIRGA DSNT N-NE AND S AND W TCU DSNT SE P0000 T02941011


Station Type Date Time Source
KSLC Decoded METAR 2024/05/28 22:54 UTC NOAA

SALT LAKE CITY INTERNATIONAL AIRPORT , UT, United States (KSLC) 40-47N 111-58W 1286M
May 28, 2024 - 06:54 PM EDT / 2024.05.28 2254 UTC
Wind: from the E (100 degrees) at 3 MPH (3 KT):0
Visibility: 10 mile(s):0
Sky conditions: partly cloudy
Weather: Towering cumulus clouds observed
Precipitation last hour: A trace
Temperature: 84.9 F (29.4 C)
Dew Point: 30.0 F (-1.1 C)
Relative Humidity: 13%
Pressure (altimeter): 29.97 in. Hg (1014 hPa)
ob: KSLC 282254Z 10003KT 10SM FEW090 FEW120 SCT150 SCT250 29/M01 A2997 RMK AO2 RAE00 SLP101 VIRGA DSNT N-NE AND S AND W TCU DSNT SE P0000 T02941011
cycle: 23

Station Type Date Time Source
KSLC TAF 2024/05/28 20:04 UTC NOAA